createdAt,value
2018-09-13T00:01:27.024Z,100284.50
2018-09-13T00:03:54.746Z,100275.77
2018-09-13T00:06:22.400Z,100279.80
2018-09-13T00:08:50.030Z,100281.42
2018-09-13T00:11:17.726Z,100287.13
2018-09-13T00:13:45.544Z,100286.06
2018-09-13T00:16:13.272Z,100274.61
2018-09-13T00:18:40.957Z,100279.62
2018-09-13T00:21:08.772Z,100284.48
2018-09-13T00:23:36.503Z,100289.66
2018-09-13T00:26:04.166Z,100286.02
2018-09-13T00:28:31.825Z,100291.86
2018-09-13T00:30:59.603Z,100293.58
2018-09-13T00:33:27.282Z,100290.44
2018-09-13T00:35:55.131Z,100289.06
2018-09-13T00:38:22.739Z,100286.61
2018-09-13T00:40:50.411Z,100289.14
2018-09-13T00:43:18.016Z,100292.43
2018-09-13T00:45:45.649Z,100281.80
2018-09-13T00:48:13.339Z,100281.39
2018-09-13T00:50:40.965Z,100281.88
2018-09-13T00:53:08.611Z,100278.09
2018-09-13T00:55:36.239Z,100270.52
2018-09-13T00:58:04.532Z,100282.81
2018-09-13T01:00:32.947Z,100292.47
2018-09-13T01:03:00.624Z,100297.99
2018-09-13T01:05:28.418Z,100296.06
2018-09-13T01:07:56.082Z,100288.80
2018-09-13T01:10:23.731Z,100304.00
2018-09-13T01:12:51.442Z,100302.57
2018-09-13T01:15:19.122Z,100293.97
2018-09-13T01:17:46.838Z,100298.81
2018-09-13T01:20:14.528Z,100293.75
2018-09-13T01:22:42.218Z,100290.80
2018-09-13T01:25:09.892Z,100292.56
2018-09-13T01:27:37.558Z,100289.95
2018-09-13T01:30:05.530Z,100283.52
2018-09-13T01:32:33.245Z,100280.04
2018-09-13T01:35:01.070Z,100277.05
2018-09-13T01:37:28.733Z,100268.39
2018-09-13T01:39:56.419Z,100279.83
2018-09-13T01:42:24.156Z,100281.16
2018-09-13T01:44:51.825Z,100279.22
2018-09-13T01:47:19.510Z,100277.34
2018-09-13T01:49:47.168Z,100270.13
2018-09-13T01:52:15.014Z,100276.73
2018-09-13T01:54:42.642Z,100267.75
2018-09-13T01:57:10.176Z,100270.27
2018-09-13T01:59:37.829Z,100254.41
2018-09-13T02:02:05.474Z,100251.16
2018-09-13T02:04:33.143Z,100249.20
2018-09-13T02:07:00.781Z,100254.95
2018-09-13T02:09:28.445Z,100258.23
2018-09-13T02:11:56.098Z,100259.07
2018-09-13T02:14:23.749Z,100260.74
2018-09-13T02:16:51.749Z,100256.91
2018-09-13T02:19:19.399Z,100250.49
2018-09-13T02:21:47.049Z,100254.53
2018-09-13T02:24:14.627Z,100258.93
2018-09-13T02:26:42.276Z,100259.94
2018-09-13T02:29:10.067Z,100259.83
2018-09-13T02:31:37.705Z,100253.17
2018-09-13T02:34:05.393Z,100252.30
2018-09-13T02:39:09.070Z,100238.39
2018-09-13T02:41:36.774Z,100234.38
2018-09-13T02:44:05.145Z,100227.91
2018-09-13T02:46:32.745Z,100231.48
2018-09-13T02:49:00.367Z,100235.37
2018-09-13T02:51:27.985Z,100239.25
2018-09-13T02:53:55.635Z,100241.20
2018-09-13T02:56:23.237Z,100242.17
2018-09-13T02:58:50.933Z,100234.37
2018-09-13T03:01:18.577Z,100229.31
2018-09-13T03:03:46.971Z,100224.54
2018-09-13T03:06:14.661Z,100219.80
2018-09-13T03:08:42.253Z,100224.26
2018-09-13T03:11:09.914Z,100225.03
2018-09-13T03:13:37.589Z,100221.55
2018-09-13T03:16:05.211Z,100224.33
2018-09-13T03:18:33.181Z,100226.00
2018-09-13T03:21:00.825Z,100227.81
2018-09-13T03:23:28.541Z,100230.25
2018-09-13T03:25:56.324Z,100229.77
2018-09-13T03:28:24.041Z,100228.23
2018-09-13T03:30:51.732Z,100227.13
2018-09-13T03:33:19.468Z,100223.36
2018-09-13T03:35:47.590Z,100231.69
2018-09-13T03:38:15.216Z,100231.16
2018-09-13T03:40:42.892Z,100236.07
2018-09-13T03:43:10.535Z,100239.56
2018-09-13T03:45:38.217Z,100234.02
2018-09-13T03:48:05.947Z,100237.22
2018-09-13T03:50:33.618Z,100237.39
2018-09-13T03:53:01.247Z,100244.05
2018-09-13T03:55:28.967Z,100256.53
2018-09-13T03:57:56.606Z,100254.72
2018-09-13T04:00:24.290Z,100263.16
2018-09-13T04:02:52.000Z,100262.59
2018-09-13T04:05:19.620Z,100265.80
2018-09-13T04:07:47.308Z,100264.34
2018-09-13T04:10:15.205Z,100266.81
2018-09-13T04:12:42.859Z,100269.64
2018-09-13T04:15:10.517Z,100267.02
2018-09-13T04:17:38.131Z,100270.15
2018-09-13T04:20:06.020Z,100274.61
2018-09-13T04:22:33.710Z,100265.97
2018-09-13T04:25:01.350Z,100264.41
2018-09-13T04:27:29.017Z,100261.23
2018-09-13T04:29:57.113Z,100258.13
2018-09-13T04:32:24.755Z,100259.56
2018-09-13T04:34:52.390Z,100265.62
2018-09-13T04:37:20.019Z,100264.13
2018-09-13T04:39:48.998Z,100265.92
2018-09-13T04:42:16.659Z,100263.03
2018-09-13T04:44:44.294Z,100255.26
2018-09-13T04:47:11.971Z,100242.20
2018-09-13T04:49:39.723Z,100251.22
2018-09-13T04:52:07.389Z,100248.84
2018-09-13T04:54:35.075Z,100249.95
2018-09-13T04:57:02.729Z,100243.82
2018-09-13T04:59:30.431Z,100251.83
2018-09-13T05:01:58.073Z,100253.91
2018-09-13T05:04:25.833Z,100249.59
2018-09-13T05:06:53.519Z,100241.58
2018-09-13T05:09:21.258Z,100244.80
2018-09-13T05:11:49.071Z,100247.09
2018-09-13T05:14:16.716Z,100242.25
2018-09-13T05:16:44.344Z,100245.39
2018-09-13T05:19:12.035Z,100245.98
2018-09-13T05:21:39.740Z,100245.91
2018-09-13T05:24:07.391Z,100250.34
2018-09-13T05:26:35.074Z,100248.84
2018-09-13T05:29:02.806Z,100255.91
2018-09-13T05:31:30.665Z,100253.66
2018-09-13T05:33:58.430Z,100242.93
2018-09-13T05:36:26.098Z,100238.91
2018-09-13T05:38:53.812Z,100237.31
2018-09-13T05:41:21.500Z,100243.91
2018-09-13T05:43:49.228Z,100241.95
2018-09-13T05:46:16.829Z,100239.00
2018-09-13T05:48:44.695Z,100231.27
2018-09-13T05:51:12.502Z,100239.52
2018-09-13T05:53:40.204Z,100240.87
2018-09-13T05:56:08.147Z,100254.88
2018-09-13T05:58:36.058Z,100258.92
2018-09-13T06:01:03.773Z,100258.87
2018-09-13T06:03:31.471Z,100267.64
2018-09-13T06:05:59.137Z,100266.01
2018-09-13T06:08:26.829Z,100270.98
2018-09-13T06:10:54.505Z,100284.77
2018-09-13T06:13:22.143Z,100290.69
2018-09-13T06:15:49.795Z,100300.20
2018-09-13T06:18:17.411Z,100293.86
2018-09-13T06:20:45.321Z,100287.05
2018-09-13T06:23:13.033Z,100277.87
2018-09-13T06:25:40.730Z,100276.11
2018-09-13T06:28:08.780Z,100284.89
2018-09-13T06:30:36.572Z,100298.78
2018-09-13T06:33:04.318Z,100289.97
2018-09-13T06:35:31.954Z,100283.50
2018-09-13T06:37:59.676Z,100288.98
2018-09-13T06:40:27.412Z,100285.27
2018-09-13T06:42:55.179Z,100271.29
2018-09-13T06:45:22.867Z,100273.98
2018-09-13T06:47:50.515Z,100282.51
2018-09-13T06:50:18.295Z,100278.36
2018-09-13T06:52:45.947Z,100273.05
2018-09-13T06:55:13.618Z,100270.54
2018-09-13T06:57:42.323Z,100275.19
2018-09-13T07:00:10.075Z,100259.39
2018-09-13T07:02:37.878Z,100246.77
2018-09-13T07:05:06.256Z,100255.58
2018-09-13T07:07:33.986Z,100251.39
2018-09-13T07:10:01.737Z,100244.63
2018-09-13T07:12:29.506Z,100254.91
2018-09-13T07:14:57.251Z,100260.77
2018-09-13T07:17:25.016Z,100240.13
2018-09-13T07:19:52.644Z,100253.43
2018-09-13T07:22:22.454Z,100246.14
2018-09-13T07:24:50.116Z,100235.02
2018-09-13T07:27:17.885Z,100235.98
2018-09-13T07:29:49.652Z,100238.61
2018-09-13T07:32:17.366Z,100238.56
2018-09-13T07:34:45.079Z,100223.59
2018-09-13T07:37:12.860Z,100230.80
2018-09-13T07:39:40.617Z,100221.58
2018-09-13T07:42:08.310Z,100218.16
2018-09-13T07:44:36.016Z,100221.35
2018-09-13T07:47:03.734Z,100224.84
2018-09-13T07:49:31.557Z,100221.17
2018-09-13T07:51:59.228Z,100223.66
2018-09-13T07:54:27.000Z,100231.14
2018-09-13T07:56:54.647Z,100225.30
2018-09-13T07:59:22.297Z,100220.97
2018-09-13T08:01:50.021Z,100225.14
2018-09-13T08:04:17.731Z,100233.16
2018-09-13T08:06:45.937Z,100228.66
2018-09-13T08:09:13.616Z,100221.12
2018-09-13T08:11:41.788Z,100212.44
2018-09-13T08:14:09.426Z,100210.60
2018-09-13T08:16:37.177Z,100217.41
2018-09-13T08:19:04.835Z,100218.59
2018-09-13T08:21:32.522Z,100220.16
2018-09-13T08:24:00.454Z,100224.53
2018-09-13T08:26:28.135Z,100216.00
2018-09-13T08:28:56.369Z,100221.58
2018-09-13T08:31:24.284Z,100225.21
2018-09-13T08:33:52.110Z,100230.95
2018-09-13T08:36:20.037Z,100224.16
2018-09-13T08:38:47.927Z,100227.05
2018-09-13T08:41:15.602Z,100235.31
2018-09-13T08:43:43.257Z,100238.31
2018-09-13T08:46:10.965Z,100238.84
2018-09-13T08:48:38.619Z,100234.02
2018-09-13T08:51:06.329Z,100233.53
2018-09-13T08:53:34.047Z,100241.06
2018-09-13T08:56:01.716Z,100239.91
2018-09-13T08:58:29.478Z,100243.22
2018-09-13T09:00:57.622Z,100240.39
2018-09-13T09:03:25.332Z,100238.03
2018-09-13T09:05:53.024Z,100229.23
2018-09-13T09:08:20.848Z,100219.92
2018-09-13T09:10:48.593Z,100222.46
2018-09-13T09:13:16.231Z,100233.33
2018-09-13T09:15:44.020Z,100230.78
2018-09-13T09:18:11.825Z,100238.05
2018-09-13T09:20:39.546Z,100241.72
2018-09-13T09:23:07.140Z,100243.05
2018-09-13T09:25:34.890Z,100253.92
2018-09-13T09:28:02.714Z,100249.10
2018-09-13T09:30:30.534Z,100247.45
2018-09-13T09:32:58.402Z,100246.52
2018-09-13T09:35:26.086Z,100241.06
2018-09-13T09:37:53.958Z,100244.06
2018-09-13T09:40:21.669Z,100236.06
2018-09-13T09:42:49.562Z,100227.16
2018-09-13T09:45:17.376Z,100233.59
2018-09-13T09:47:45.141Z,100230.30
2018-09-13T09:50:12.880Z,100236.99
2018-09-13T09:52:40.726Z,100238.62
2018-09-13T09:55:08.434Z,100241.77
2018-09-13T10:00:15.865Z,100232.91
2018-09-13T10:02:43.888Z,100237.58
2018-09-13T10:05:11.557Z,100235.42
2018-09-13T10:07:39.325Z,100232.05
2018-09-13T10:10:07.619Z,100233.75
2018-09-13T10:12:35.362Z,100229.33
2018-09-13T10:15:08.756Z,100215.38
2018-09-13T10:17:42.187Z,100229.75
2018-09-13T10:22:18.618Z,100236.75
2018-09-13T10:24:52.062Z,100221.23
2018-09-13T10:27:25.502Z,100215.30
2018-09-13T10:29:58.936Z,100218.51
2018-09-13T10:32:32.413Z,100212.63
2018-09-13T10:35:05.718Z,100207.90
2018-09-13T10:37:39.226Z,100208.80
2018-09-13T10:40:12.731Z,100212.84
2018-09-13T10:42:46.072Z,100208.30
2018-09-13T10:45:19.448Z,100202.63
2018-09-13T10:47:56.923Z,100201.29
2018-09-13T10:50:24.640Z,100206.01
2018-09-13T10:52:57.127Z,100200.98
2018-09-13T10:55:24.981Z,100200.72
2018-09-13T10:57:52.599Z,100185.67
2018-09-13T11:00:20.254Z,100185.87
2018-09-13T11:02:47.938Z,100186.00
2018-09-13T11:05:15.752Z,100190.90
2018-09-13T11:07:43.374Z,100194.00
2018-09-13T11:10:11.072Z,100197.45
2018-09-13T11:12:43.349Z,100189.92
2018-09-13T11:15:16.840Z,100191.20
2018-09-13T11:17:44.479Z,100194.30
2018-09-13T11:20:12.361Z,100188.48
2018-09-13T11:22:40.031Z,100194.02
2018-09-13T11:25:07.680Z,100191.50
2018-09-13T11:27:35.289Z,100182.16
2018-09-13T11:30:03.053Z,100186.36
2018-09-13T11:32:30.687Z,100189.63
2018-09-13T11:34:58.427Z,100190.44
2018-09-13T11:37:26.157Z,100204.81
2018-09-13T11:39:54.016Z,100209.06
2018-09-13T11:42:22.286Z,100212.23
2018-09-13T11:44:50.049Z,100211.00
2018-09-13T11:47:17.694Z,100197.95
2018-09-13T11:49:45.304Z,100193.75
2018-09-13T11:52:12.984Z,100179.55
2018-09-13T11:54:40.682Z,100166.27
2018-09-13T11:57:09.390Z,100164.53
2018-09-13T11:59:37.120Z,100156.36
2018-09-13T12:02:04.870Z,100177.66
2018-09-13T12:04:32.423Z,100214.20
2018-09-13T12:07:00.181Z,100198.31
2018-09-13T12:09:27.772Z,100204.14
2018-09-13T12:11:56.421Z,100195.34
2018-09-13T12:14:24.034Z,100190.70
2018-09-13T12:16:51.669Z,100188.38
2018-09-13T12:19:19.313Z,100190.70
2018-09-13T12:21:46.947Z,100197.39
2018-09-13T12:24:17.282Z,100194.06
2018-09-13T12:26:44.950Z,100193.95
2018-09-13T12:29:12.750Z,100196.39
2018-09-13T12:31:40.515Z,100201.58
2018-09-13T12:34:08.154Z,100200.61
2018-09-13T12:36:36.100Z,100208.44
2018-09-13T12:39:07.339Z,100200.27
2018-09-13T12:41:34.974Z,100199.07
2018-09-13T12:44:02.606Z,100186.91
2018-09-13T12:46:30.238Z,100171.91
2018-09-13T12:48:57.968Z,100161.21
2018-09-13T12:51:25.954Z,100150.47
2018-09-13T12:53:53.588Z,100170.55
2018-09-13T12:56:22.025Z,100179.98
2018-09-13T12:58:50.273Z,100185.10
2018-09-13T13:01:17.940Z,100173.25
2018-09-13T13:03:45.682Z,100161.34
2018-09-13T13:06:13.704Z,100163.86
2018-09-13T13:08:41.423Z,100167.29
2018-09-13T13:11:09.223Z,100172.75
2018-09-13T13:13:37.015Z,100167.50
2018-09-13T13:16:04.699Z,100167.28
2018-09-13T13:18:32.424Z,100169.55
2018-09-13T13:21:00.111Z,100172.62
2018-09-13T13:23:27.766Z,100176.66
2018-09-13T13:25:55.432Z,100179.69
2018-09-13T13:28:23.149Z,100175.22
2018-09-13T13:30:50.919Z,100169.49
2018-09-13T13:33:18.612Z,100164.83
2018-09-13T13:35:46.564Z,100157.20
2018-09-13T13:38:14.313Z,100161.50
2018-09-13T13:40:42.060Z,100162.09
2018-09-13T13:43:09.733Z,100152.63
2018-09-13T13:45:37.492Z,100154.84
2018-09-13T13:48:06.674Z,100162.03
2018-09-13T13:50:34.682Z,100168.26
2018-09-13T13:53:04.215Z,100161.61
2018-09-13T13:55:33.970Z,100155.84
2018-09-13T13:58:04.085Z,100148.22
2018-09-13T14:00:33.551Z,100151.48
2018-09-13T14:03:01.254Z,100150.41
2018-09-13T14:05:29.086Z,100146.42
2018-09-13T14:07:56.714Z,100147.47
2018-09-13T14:12:58.928Z,100142.11
2018-09-13T14:15:26.631Z,100138.21
2018-09-13T14:17:54.293Z,100136.98
2018-09-13T14:20:22.138Z,100143.95
2018-09-13T14:22:50.159Z,100141.09
2018-09-13T14:25:18.063Z,100145.34
2018-09-13T14:27:45.902Z,100145.53
2018-09-13T14:30:13.691Z,100136.29
2018-09-13T14:32:41.363Z,100132.28
2018-09-13T14:35:09.135Z,100135.84
2018-09-13T14:37:36.963Z,100140.58
2018-09-13T14:40:04.646Z,100142.42
2018-09-13T14:42:32.242Z,100139.67
2018-09-13T14:44:59.935Z,100135.21
2018-09-13T14:47:27.641Z,100140.64
2018-09-13T14:49:55.416Z,100128.05
2018-09-13T14:52:23.121Z,100129.16
2018-09-13T14:54:50.774Z,100122.86
2018-09-13T14:57:18.817Z,100127.02
2018-09-13T14:59:46.698Z,100123.30
2018-09-13T15:02:14.393Z,100126.62
2018-09-13T15:04:42.356Z,100126.59
2018-09-13T15:07:10.206Z,100126.66
2018-09-13T15:09:38.046Z,100128.05
2018-09-13T15:12:05.746Z,100116.06
2018-09-13T15:14:33.405Z,100124.33
2018-09-13T15:17:01.110Z,100119.59
2018-09-13T15:19:28.915Z,100118.05
2018-09-13T15:21:56.838Z,100115.97
2018-09-13T15:24:25.056Z,100104.05
2018-09-13T15:26:52.858Z,100110.22
2018-09-13T15:29:20.478Z,100110.63
2018-09-13T15:31:48.166Z,100115.11
2018-09-13T15:34:15.946Z,100115.27
2018-09-13T15:36:43.709Z,100122.23
2018-09-13T15:39:12.646Z,100128.50
2018-09-13T15:41:40.483Z,100133.89
2018-09-13T15:44:08.298Z,100141.28
2018-09-13T15:46:36.086Z,100130.92
2018-09-13T15:49:04.000Z,100132.37
2018-09-13T15:51:31.794Z,100125.61
2018-09-13T15:54:00.282Z,100130.98
2018-09-13T15:56:28.130Z,100125.67
2018-09-13T15:58:55.977Z,100115.94
2018-09-13T16:01:23.832Z,100117.74
2018-09-13T16:03:51.787Z,100111.70
2018-09-13T16:06:19.864Z,100097.98
2018-09-13T16:08:47.704Z,100098.59
2018-09-13T16:11:15.569Z,100105.97
2018-09-13T16:13:43.303Z,100105.83
2018-09-13T16:16:11.151Z,100115.88
2018-09-13T16:18:38.954Z,100107.00
2018-09-13T16:21:07.759Z,100100.48
2018-09-13T16:23:35.618Z,100096.69
2018-09-13T16:26:03.517Z,100100.84
2018-09-13T16:28:31.467Z,100104.00
2018-09-13T16:30:59.251Z,100110.99
2018-09-13T16:33:27.123Z,100113.97
2018-09-13T16:35:55.689Z,100102.52
2018-09-13T16:38:30.312Z,100105.33
2018-09-13T16:41:04.909Z,100110.16
2018-09-13T16:43:38.544Z,100105.36
2018-09-13T16:46:08.149Z,100107.01
2018-09-13T16:48:42.943Z,100114.97
2018-09-13T16:51:11.187Z,100102.34
2018-09-13T16:53:39.421Z,100107.34
2018-09-13T16:56:08.318Z,100101.36
2018-09-13T16:58:36.868Z,100099.34
2018-09-13T17:01:04.876Z,100091.86
2018-09-13T17:03:32.679Z,100099.02
2018-09-13T17:06:01.215Z,100095.02
2018-09-13T17:08:29.060Z,100092.67
2018-09-13T17:10:56.986Z,100093.36
2018-09-13T17:13:24.894Z,100095.17
2018-09-13T17:15:52.840Z,100095.02
2018-09-13T17:18:20.883Z,100099.33
2018-09-13T17:20:48.707Z,100101.52
2018-09-13T17:23:16.671Z,100105.84
2018-09-13T17:25:44.533Z,100103.00
2018-09-13T17:28:12.429Z,100110.49
2018-09-13T17:30:40.297Z,100114.28
2018-09-13T17:33:08.207Z,100115.31
2018-09-13T17:35:36.145Z,100115.39
2018-09-13T17:38:04.147Z,100117.28
2018-09-13T17:40:32.074Z,100114.30
2018-09-13T17:42:59.940Z,100117.11
2018-09-13T17:45:27.869Z,100117.27
2018-09-13T17:47:55.798Z,100121.46
2018-09-13T17:50:23.703Z,100116.98
2018-09-13T17:52:51.718Z,100130.41
2018-09-13T17:55:20.851Z,100123.67
2018-09-13T17:57:49.026Z,100128.94
2018-09-13T18:00:17.104Z,100136.57
2018-09-13T18:02:44.921Z,100132.73
2018-09-13T18:05:12.829Z,100141.52
2018-09-13T18:07:40.700Z,100135.66
2018-09-13T18:10:08.657Z,100133.10
2018-09-13T18:12:36.545Z,100122.73
2018-09-13T18:15:04.650Z,100131.55
2018-09-13T18:17:32.492Z,100128.07
2018-09-13T18:20:00.331Z,100120.94
2018-09-13T18:22:28.206Z,100127.09
2018-09-13T18:24:56.042Z,100133.57
2018-09-13T18:27:25.545Z,100140.05
2018-09-13T18:29:53.647Z,100142.56
2018-09-13T18:32:21.617Z,100146.73
2018-09-13T18:34:49.734Z,100150.14
2018-09-13T18:37:17.941Z,100156.92
2018-09-13T18:39:46.389Z,100164.21
2018-09-13T18:42:15.560Z,100169.86
2018-09-13T18:44:43.485Z,100164.53
2018-09-13T18:47:11.400Z,100161.39
2018-09-13T18:49:39.309Z,100166.52
2018-09-13T18:55:41.190Z,100159.03
2018-09-13T18:58:39.537Z,100160.17
2018-09-13T19:07:45.126Z,100169.91
2018-09-13T19:10:46.259Z,100156.97
2018-09-13T19:13:49.161Z,100168.38
2018-09-13T19:23:21.926Z,100169.18
2018-09-13T19:26:25.725Z,100169.10
2018-09-13T19:29:22.352Z,100168.09
2018-09-13T19:32:43.759Z,100168.33
2018-09-13T19:35:41.157Z,100168.01
2018-09-13T19:39:00.332Z,100177.62
2018-09-13T19:42:20.751Z,100175.00
2018-09-13T19:45:18.453Z,100179.70
2018-09-13T19:51:13.859Z,100187.95
2018-09-13T19:53:41.657Z,100195.47
2018-09-13T20:00:22.534Z,100199.80
2018-09-13T20:02:50.360Z,100208.55
2018-09-13T20:05:18.062Z,100203.14
2018-09-13T20:07:45.765Z,100206.59
2018-09-13T20:10:13.489Z,100207.64
2018-09-13T20:12:41.205Z,100204.43
2018-09-13T20:15:08.893Z,100204.30
2018-09-13T20:17:36.703Z,100198.86
2018-09-13T20:20:04.829Z,100203.95
2018-09-13T20:22:32.513Z,100209.20
2018-09-13T20:25:00.286Z,100206.17
2018-09-13T20:27:27.993Z,100208.36
2018-09-13T20:29:55.703Z,100205.85
2018-09-13T20:32:23.440Z,100207.18
2018-09-13T20:34:51.185Z,100200.55
2018-09-13T20:37:18.819Z,100193.44
2018-09-13T20:39:46.501Z,100192.20
2018-09-13T20:42:14.337Z,100192.31
2018-09-13T20:44:44.633Z,100189.48
2018-09-13T20:47:12.303Z,100187.88
2018-09-13T20:49:39.963Z,100193.70
2018-09-13T20:52:07.585Z,100201.59
2018-09-13T20:54:35.286Z,100202.19
2018-09-13T20:57:02.957Z,100212.03
2018-09-13T20:59:30.577Z,100213.80
2018-09-13T21:01:58.301Z,100208.83
2018-09-13T21:04:25.918Z,100206.03
2018-09-13T21:06:53.575Z,100218.33
2018-09-13T21:09:21.206Z,100208.09
2018-09-13T21:11:48.965Z,100218.00
2018-09-13T21:14:16.649Z,100226.70
2018-09-13T21:16:44.345Z,100221.16
2018-09-13T21:19:11.967Z,100225.55
2018-09-13T21:21:39.636Z,100229.41
2018-09-13T21:24:07.426Z,100231.23
2018-09-13T21:26:35.055Z,100227.72
2018-09-13T21:29:02.710Z,100226.80
2018-09-13T21:31:30.330Z,100225.97
2018-09-13T21:33:57.950Z,100226.66
2018-09-13T21:36:25.785Z,100219.28
2018-09-13T21:38:53.410Z,100227.78
2018-09-13T21:41:21.036Z,100220.92
2018-09-13T21:43:48.659Z,100224.95
2018-09-13T21:46:16.291Z,100232.80
2018-09-13T21:48:43.932Z,100231.92
2018-09-13T21:51:11.590Z,100230.02
2018-09-13T21:53:39.261Z,100228.73
2018-09-13T21:56:07.103Z,100230.50
2018-09-13T21:58:34.742Z,100239.14
2018-09-13T22:01:02.384Z,100229.63
2018-09-13T22:03:30.087Z,100231.25
2018-09-13T22:05:57.724Z,100229.48
2018-09-13T22:08:25.384Z,100232.92
2018-09-13T22:10:53.006Z,100225.84
2018-09-13T22:13:20.662Z,100230.16
2018-09-13T22:15:48.294Z,100228.16
2018-09-13T22:18:15.982Z,100233.59
2018-09-13T22:20:43.666Z,100228.89
2018-09-13T22:23:11.282Z,100233.25
2018-09-13T22:25:38.968Z,100236.59
2018-09-13T22:28:06.632Z,100239.89
2018-09-13T22:30:34.264Z,100240.75
2018-09-13T22:33:02.264Z,100241.45
2018-09-13T22:35:29.849Z,100241.28
2018-09-13T22:37:57.508Z,100241.70
2018-09-13T22:40:25.176Z,100239.36
2018-09-13T22:42:52.799Z,100238.13
2018-09-13T22:45:20.438Z,100243.53
2018-09-13T22:47:48.084Z,100244.42
2018-09-13T22:50:15.744Z,100240.37
2018-09-13T22:52:43.438Z,100240.11
2018-09-13T22:55:11.108Z,100245.45
2018-09-13T22:57:38.852Z,100243.51
2018-09-13T23:00:06.800Z,100247.06
2018-09-13T23:02:40.284Z,100248.31
2018-09-13T23:05:07.988Z,100246.77
2018-09-13T23:07:35.631Z,100248.70
2018-09-13T23:10:03.297Z,100248.41
2018-09-13T23:12:30.922Z,100249.41
2018-09-13T23:14:58.587Z,100243.81
2018-09-13T23:17:26.315Z,100245.14
2018-09-13T23:19:53.938Z,100238.20
2018-09-13T23:22:21.701Z,100250.02
2018-09-13T23:24:49.353Z,100242.22
2018-09-13T23:27:17.127Z,100246.20
2018-09-13T23:29:44.815Z,100240.78
2018-09-13T23:32:12.538Z,100245.89
2018-09-13T23:34:40.271Z,100248.72
2018-09-13T23:37:07.923Z,100247.26
2018-09-13T23:39:35.946Z,100245.36
2018-09-13T23:42:03.473Z,100247.75
2018-09-13T23:44:31.133Z,100248.30
2018-09-13T23:46:58.711Z,100252.23
2018-09-13T23:49:26.319Z,100251.43
2018-09-13T23:51:53.960Z,100249.66
2018-09-13T23:54:21.636Z,100259.38
2018-09-13T23:56:49.258Z,100250.61
2018-09-13T23:59:17.064Z,100244.44
